Time;durP1;ratioP1;P1;durP2;ratioP2;P2;SDS_P1;SDS_P2;PMS_P1;PMS_P2;Temp;Humidity;BMP_temperature;BMP_pressure;BME280_temperature;BME280_humidity;BME280_pressure;Samples;Min_cycle;Max_cycle;Signal;HPM_P1;HPM_P2
2023/02/14 00:00:01;;;;;;;20.52;14.65;;;;;;;2.86;72.51;102439.13;10238479;29;20487;-79
2023/02/14 00:05:09;;;;;;;21.60;14.30;;;;;;;2.87;72.75;102431.13;10252122;28;20059;-78
2023/02/14 00:10:14;;;;;;;20.98;13.63;;;;;;;2.88;73.05;102424.03;10246719;29;20039;-79
2023/02/14 00:15:23;;;;;;;23.90;14.75;;;;;;;2.87;73.33;102427.59;10246451;29;20505;-79
2023/02/14 00:20:27;;;;;;;23.98;13.60;;;;;;;2.85;73.42;102424.97;10246117;28;20051;-78
2023/02/14 00:25:33;;;;;;;27.10;14.85;;;;;;;2.90;73.63;102424.91;10247177;29;20082;-78
2023/02/14 00:30:36;;;;;;;25.77;13.82;;;;;;;2.95;73.81;102434.53;10244642;29;20482;-78
2023/02/14 00:35:39;;;;;;;22.15;13.88;;;;;;;3.00;73.91;102427.38;10245717;29;20047;-78
2023/02/14 00:40:43;;;;;;;21.23;13.88;;;;;;;2.93;73.40;102430.16;10239426;29;20062;-78
2023/02/14 00:45:46;;;;;;;21.45;13.73;;;;;;;3.02;74.19;102430.00;10234107;29;20063;-78
2023/02/14 00:50:49;;;;;;;21.30;13.15;;;;;;;3.08;74.10;102429.91;10233604;29;20044;-78
2023/02/14 00:55:53;;;;;;;24.35;13.60;;;;;;;3.02;74.12;102433.53;10243949;29;20154;-77
2023/02/14 01:00:56;;;;;;;23.30;14.60;;;;;;;2.96;74.09;102443.38;10269055;23;20044;-81
2023/02/14 01:06:00;;;;;;;21.92;14.10;;;;;;;2.88;74.25;102442.63;10247527;29;20082;-79
2023/02/14 01:11:12;;;;;;;22.63;14.23;;;;;;;2.88;74.46;102438.22;10233333;28;20052;-80
2023/02/14 01:16:17;;;;;;;21.67;13.88;;;;;;;2.93;74.95;102440.78;10216028;29;20075;-80
2023/02/14 01:21:22;;;;;;;26.42;15.10;;;;;;;2.90;75.57;102441.69;10204442;29;20059;-79
2023/02/14 01:26:27;;;;;;;26.58;14.93;;;;;;;2.94;75.93;102447.84;10192270;29;20058;-81
2023/02/14 01:31:32;;;;;;;36.58;17.63;;;;;;;2.93;76.50;102439.00;10186409;29;20048;-81
2023/02/14 01:36:37;;;;;;;28.20;15.75;;;;;;;2.99;76.58;102443.31;10179260;29;20059;-79
2023/02/14 01:41:43;;;;;;;26.60;14.63;;;;;;;2.92;76.21;102445.22;10169250;29;20132;-79
2023/02/14 01:46:46;;;;;;;25.42;15.10;;;;;;;2.86;76.53;102447.09;10181042;29;20099;-79
2023/02/14 01:51:52;;;;;;;29.13;16.65;;;;;;;2.86;76.49;102450.63;10188365;29;20044;-80
2023/02/14 01:57:00;;;;;;;30.83;16.83;;;;;;;2.84;76.52;102447.97;10182222;29;20052;-80
2023/02/14 02:02:04;;;;;;;31.52;16.70;;;;;;;2.74;77.15;102438.44;10192837;29;20052;-80
2023/02/14 02:07:12;;;;;;;32.70;17.52;;;;;;;2.68;77.65;102438.50;10177561;29;20048;-80
2023/02/14 02:12:16;;;;;;;37.10;18.02;;;;;;;2.73;77.70;102436.66;10160919;29;20056;-81
2023/02/14 02:17:29;;;;;;;35.08;18.70;;;;;;;2.71;77.78;102427.84;10180719;29;20069;-80
2023/02/14 02:23:11;;;;;;;33.75;18.83;;;;;;;2.73;77.84;102428.69;10160683;29;20041;-80
2023/02/14 02:28:49;;;;;;;37.67;19.70;;;;;;;2.74;77.86;102421.59;10164020;29;20112;-80
2023/02/14 02:34:20;;;;;;;35.47;18.58;;;;;;;2.78;77.65;102412.72;10178645;29;20052;-81
2023/02/14 02:39:39;;;;;;;34.97;18.58;;;;;;;2.74;77.48;102406.59;10173370;29;20053;-79
2023/02/14 02:44:50;;;;;;;32.05;17.23;;;;;;;2.60;77.20;102401.47;10203396;29;20139;-80
2023/02/14 02:55:28;;;;;;;25.92;14.27;;;;;;;2.46;76.50;102389.28;10174773;29;20108;-80
2023/02/14 03:00:31;;;;;;;20.88;12.82;;;;;;;2.35;75.92;102376.19;10161094;29;20072;-80
2023/02/14 03:05:35;;;;;;;19.83;12.25;;;;;;;2.24;75.65;102375.47;10176646;29;20463;-80
2023/02/14 03:10:41;;;;;;;18.90;11.60;;;;;;;2.17;75.35;102364.09;10177548;29;20084;-78
2023/02/14 03:15:57;;;;;;;19.63;12.32;;;;;;;2.04;74.95;102371.31;10174308;29;20048;-81
2023/02/14 03:21:12;;;;;;;24.02;12.55;;;;;;;2.04;74.90;102360.72;10169412;29;20135;-80
2023/02/14 03:26:18;;;;;;;24.02;14.65;;;;;;;2.03;75.07;102369.59;10163882;29;20041;-78
2023/02/14 03:31:30;;;;;;;25.23;14.60;;;;;;;2.13;75.29;102363.22;10223672;28;20124;-81
2023/02/14 03:36:41;;;;;;;20.75;12.63;;;;;;;2.15;74.65;102369.41;10182417;29;20582;-81
2023/02/14 03:41:50;;;;;;;22.05;12.05;;;;;;;2.01;74.49;102362.53;10191918;29;20080;-81
2023/02/14 03:46:58;;;;;;;19.10;11.40;;;;;;;1.90;74.37;102358.25;10176950;29;20051;-80
2023/02/14 03:52:04;;;;;;;18.27;11.20;;;;;;;1.81;73.44;102350.44;10181531;29;20055;-81
2023/02/14 03:57:17;;;;;;;20.65;12.07;;;;;;;1.76;73.81;102354.91;10181981;29;20547;-79
2023/02/14 04:02:25;;;;;;;21.58;11.93;;;;;;;1.83;73.48;102353.06;10172859;29;20068;-81
2023/02/14 04:07:27;;;;;;;21.60;13.07;;;;;;;1.89;73.85;102348.56;10173234;29;20055;-80
2023/02/14 04:12:32;;;;;;;21.65;13.23;;;;;;;1.92;73.90;102348.53;10168951;29;20048;-79
2023/02/14 04:23:00;;;;;;;23.73;13.32;;;;;;;1.94;73.96;102343.19;10187286;29;20053;-78
2023/02/14 04:28:06;;;;;;;24.23;14.35;;;;;;;1.98;74.48;102341.38;10207915;29;20111;-78
2023/02/14 04:33:09;;;;;;;26.25;14.73;;;;;;;1.94;74.79;102327.28;10188838;29;20044;-79
2023/02/14 04:38:12;;;;;;;21.10;13.27;;;;;;;1.91;74.45;102327.31;10172707;29;20044;-79
2023/02/14 04:43:16;;;;;;;24.35;12.88;;;;;;;1.77;74.15;102326.63;10186697;29;20055;-78
2023/02/14 04:48:19;;;;;;;24.40;13.50;;;;;;;1.73;74.42;102324.03;10177491;29;20464;-78
2023/02/14 04:53:22;;;;;;;20.42;11.98;;;;;;;1.73;73.88;102328.47;10171969;29;20053;-80
2023/02/14 04:58:26;;;;;;;19.52;10.88;;;;;;;1.37;72.64;102329.78;10155314;29;20052;-80
2023/02/14 05:03:29;;;;;;;21.48;10.43;;;;;;;0.90;71.50;102317.94;10151544;29;20081;-79
2023/02/14 05:08:32;;;;;;;16.98;10.48;;;;;;;0.66;71.89;102330.53;10177323;29;20048;-79
2023/02/14 05:13:36;;;;;;;17.20;11.30;;;;;;;0.47;72.27;102326.28;10167669;29;20075;-81
2023/02/14 05:18:39;;;;;;;20.05;11.15;;;;;;;0.46;72.50;102329.78;10163745;29;20056;-81
2023/02/14 05:23:42;;;;;;;18.50;11.52;;;;;;;0.50;72.59;102326.25;10150351;29;20041;-80
2023/02/14 05:28:46;;;;;;;20.00;11.98;;;;;;;0.41;72.31;102329.81;10159321;29;20052;-80
2023/02/14 05:33:49;;;;;;;22.27;12.35;;;;;;;0.47;73.04;102327.16;10156176;29;20071;-80
2023/02/14 05:38:51;;;;;;;21.08;12.45;;;;;;;0.50;72.49;102331.53;10157565;29;20052;-78
2023/02/14 05:43:56;;;;;;;19.23;12.00;;;;;;;0.53;72.66;102331.50;10197492;29;20071;-79
2023/02/14 05:48:59;;;;;;;18.45;11.45;;;;;;;0.66;73.05;102326.97;10189770;29;20063;-80
2023/02/14 05:54:02;;;;;;;20.48;11.27;;;;;;;0.84;73.30;102338.25;10169808;29;20079;-80
2023/02/14 05:59:06;;;;;;;19.48;11.65;;;;;;;0.85;72.89;102336.53;10182073;29;20044;-81
2023/02/14 06:04:08;;;;;;;16.20;10.48;;;;;;;0.70;72.37;102337.53;10173602;29;20052;-80
2023/02/14 06:09:11;;;;;;;17.90;10.80;;;;;;;0.58;71.71;102340.28;10159399;29;20062;-80
2023/02/14 06:14:16;;;;;;;18.48;11.10;;;;;;;0.35;71.59;102345.72;10168799;29;20052;-80
2023/02/14 06:19:19;;;;;;;19.30;11.68;;;;;;;0.27;71.63;102352.84;10162832;29;20047;-80
2023/02/14 06:24:22;;;;;;;19.50;11.40;;;;;;;0.26;72.20;102349.31;10184349;29;20052;-80
2023/02/14 06:29:26;;;;;;;18.15;11.52;;;;;;;0.19;72.12;102352.00;10161325;29;20080;-80
2023/02/14 06:34:29;;;;;;;22.95;14.20;;;;;;;0.04;72.08;102356.50;10165180;29;20047;-80
2023/02/14 06:39:32;;;;;;;21.60;12.57;;;;;;;0.01;72.49;102353.91;10166139;29;20055;-80
2023/02/14 06:44:36;;;;;;;23.77;12.88;;;;;;;0.06;72.34;102354.75;10186099;29;20431;-79
2023/02/14 06:49:39;;;;;;;19.77;11.82;;;;;;;-0.03;72.10;102367.13;10185311;29;20083;-79
2023/02/14 06:54:42;;;;;;;20.83;13.02;;;;;;;-0.16;73.13;102353.13;10177658;29;20128;-80
2023/02/14 06:59:46;;;;;;;20.27;12.77;;;;;;;-0.01;73.03;102355.66;10171054;29;20131;-81
2023/02/14 07:04:49;;;;;;;21.17;13.00;;;;;;;0.23;72.88;102365.22;10189883;29;20051;-80
2023/02/14 07:09:51;;;;;;;20.95;12.93;;;;;;;0.59;73.06;102366.72;10166280;29;20119;-82
2023/02/14 07:14:56;;;;;;;16.92;7.38;;;;;;;0.94;73.24;102364.66;10184109;29;20045;-81
2023/02/14 07:19:58;;;;;;;31.52;18.85;;;;;;;1.49;72.76;102369.38;10187644;29;20056;-81
2023/02/14 07:25:01;;;;;;;13.45;8.80;;;;;;;2.10;70.04;102365.06;10155321;29;20040;-80
2023/02/14 07:30:09;;;;;;;14.18;9.48;;;;;;;2.58;67.05;102363.47;10167790;29;20049;-79
2023/02/14 07:35:12;;;;;;;13.25;9.02;;;;;;;2.96;65.70;102355.75;10165909;29;20064;-80
2023/02/14 07:40:17;;;;;;;17.02;9.52;;;;;;;3.65;65.16;102351.78;10162110;29;20044;-80
2023/02/14 07:45:21;;;;;;;15.35;11.93;;;;;;;4.15;63.35;102348.00;10165137;29;20099;-79
2023/02/14 07:50:24;;;;;;;19.63;13.18;;;;;;;4.17;61.60;102342.66;10178213;29;20067;-78
2023/02/14 07:55:27;;;;;;;20.50;12.38;;;;;;;4.27;61.37;102338.00;10182766;29;20051;-79
2023/02/14 08:00:31;;;;;;;20.52;13.25;;;;;;;4.42;63.00;102334.97;10184872;29;20048;-79
2023/02/14 08:05:35;;;;;;;19.00;12.25;;;;;;;4.57;62.08;102339.91;10182015;29;20108;-79
2023/02/14 08:10:38;;;;;;;24.25;12.32;;;;;;;4.99;61.47;102339.78;10169772;29;20053;-80
2023/02/14 08:21:04;;;;;;;22.80;14.43;;;;;;;6.25;61.66;102333.41;10197249;29;20043;-75
2023/02/14 08:26:07;;;;;;;21.00;12.70;;;;;;;6.46;60.69;102322.97;10202684;29;20068;-77
2023/02/14 08:31:11;;;;;;;24.65;14.52;;;;;;;6.80;61.32;102317.34;10200623;29;20044;-78
2023/02/14 08:36:16;;;;;;;24.48;14.05;;;;;;;7.14;61.11;102317.06;10191980;29;20052;-77
2023/02/14 08:41:19;;;;;;;23.02;14.40;;;;;;;7.65;60.32;102321.44;10212309;29;20128;-77
2023/02/14 08:46:23;;;;;;;23.55;14.27;;;;;;;7.89;59.02;102321.41;10193242;29;20035;-76
2023/02/14 08:51:26;;;;;;;22.88;13.82;;;;;;;8.02;59.25;102313.78;10206390;29;20123;-78
2023/02/14 08:56:29;;;;;;;23.88;14.55;;;;;;;8.09;58.22;102317.94;10173426;29;20079;-77
2023/02/14 09:01:35;;;;;;;26.00;14.95;;;;;;;8.24;58.57;102317.31;10172201;29;20040;-78
2023/02/14 09:06:38;;;;;;;23.92;14.48;;;;;;;8.82;57.42;102312.22;10163557;29;20048;-79
2023/02/14 09:11:41;;;;;;;24.77;15.77;;;;;;;8.94;56.82;102312.63;10164265;29;20100;-78
2023/02/14 09:16:45;;;;;;;23.00;14.13;;;;;;;9.06;56.27;102309.44;10176968;29;20076;-79
2023/02/14 09:21:48;;;;;;;23.25;15.15;;;;;;;9.24;56.23;102305.94;10156490;29;20394;-78
2023/02/14 09:26:51;;;;;;;20.50;14.55;;;;;;;9.45;54.98;102304.06;10172266;29;20059;-79
2023/02/14 09:31:56;;;;;;;22.45;14.27;;;;;;;9.79;55.06;102304.31;10157103;29;20051;-80
2023/02/14 09:42:36;;;;;;;22.58;14.13;;;;;;;10.01;53.89;102302.41;10171287;29;20071;-77
2023/02/14 09:47:45;;;;;;;23.33;14.93;;;;;;;10.35;53.30;102290.84;10207727;29;20055;-80
2023/02/14 09:52:52;;;;;;;23.70;14.95;;;;;;;10.73;52.89;102289.88;10191015;29;20055;-79
2023/02/14 09:58:06;;;;;;;22.90;14.63;;;;;;;11.14;52.63;102290.41;10152781;29;20040;-78
2023/02/14 10:03:33;;;;;;;24.00;13.63;;;;;;;11.34;50.73;102281.25;10158927;29;20071;-78
2023/02/14 10:08:50;;;;;;;22.00;13.45;;;;;;;11.79;50.32;102287.72;10138101;29;20060;-80
2023/02/14 10:13:56;;;;;;;24.13;14.90;;;;;;;12.06;49.36;102279.06;10141800;29;20408;-78
2023/02/14 10:19:03;;;;;;;18.20;13.35;;;;;;;12.18;49.05;102281.06;10173516;29;20067;-81
2023/02/14 10:24:13;;;;;;;21.20;14.40;;;;;;;12.22;49.09;102277.22;10162877;29;20064;-81
2023/02/14 10:29:18;;;;;;;20.65;13.30;;;;;;;12.71;48.41;102273.47;10168434;29;20527;-81
2023/02/14 10:34:31;;;;;;;24.30;13.70;;;;;;;13.12;47.95;102259.28;10157650;29;20100;-80
2023/02/14 10:39:50;;;;;;;19.63;13.30;;;;;;;12.92;47.61;102261.41;10168565;29;20411;-79
2023/02/14 10:45:04;;;;;;;19.88;13.77;;;;;;;13.49;47.15;102245.25;10169194;29;20112;-80
2023/02/14 10:50:18;;;;;;;22.55;13.63;;;;;;;13.71;46.88;102243.84;10150544;29;20052;-79
2023/02/14 10:55:26;;;;;;;19.80;14.00;;;;;;;13.98;46.02;102251.09;10158437;29;20104;-79
2023/02/14 11:00:37;;;;;;;20.60;13.25;;;;;;;14.40;44.97;102242.00;10148259;29;20040;-79
2023/02/14 11:05:44;;;;;;;20.35;13.43;;;;;;;14.82;44.70;102235.47;10197705;29;20056;-80
2023/02/14 11:10:49;;;;;;;23.65;13.45;;;;;;;16.40;41.46;102236.63;10174934;29;20060;-80
2023/02/14 11:15:52;;;;;;;18.13;12.80;;;;;;;17.20;40.23;102235.84;10168199;29;20059;-81
2023/02/14 11:21:06;;;;;;;17.63;13.15;;;;;;;17.88;39.32;102225.72;10178723;29;20048;-79
2023/02/14 11:26:16;;;;;;;19.45;13.15;;;;;;;18.33;38.05;102215.59;10179966;29;20047;-80
2023/02/14 11:31:31;;;;;;;15.30;11.82;;;;;;;18.56;37.93;102210.00;10183842;29;20456;-80
2023/02/14 11:36:40;;;;;;;15.63;12.38;;;;;;;18.97;37.27;102202.84;10163650;29;20063;-80
2023/02/14 11:41:48;;;;;;;18.65;12.75;;;;;;;18.64;38.64;102193.88;10192975;29;20048;-79
2023/02/14 11:46:53;;;;;;;15.85;11.93;;;;;;;19.27;37.62;102180.19;10190184;29;20071;-80
2023/02/14 11:52:00;;;;;;;18.10;12.15;;;;;;;19.27;37.70;102172.00;10161704;29;20052;-80
2023/02/14 11:57:06;;;;;;;14.77;11.50;;;;;;;19.32;37.52;102169.72;10159857;29;20051;-80
2023/02/14 12:02:24;;;;;;;15.85;12.05;;;;;;;20.33;36.66;102159.56;10166251;29;20055;-80
2023/02/14 12:07:31;;;;;;;17.60;12.02;;;;;;;20.87;35.76;102146.19;10158704;29;20048;-80
2023/02/14 12:12:35;;;;;;;14.40;11.10;;;;;;;21.02;35.28;102148.28;10159361;29;20555;-80
2023/02/14 12:17:39;;;;;;;14.80;11.48;;;;;;;21.17;35.08;102145.06;10152281;29;20044;-80
2023/02/14 12:28:29;;;;;;;13.90;10.30;;;;;;;20.95;34.74;102132.63;11210430;23;20053;-76
2023/02/14 12:40:16;;;;;;;13.95;10.73;;;;;;;20.32;35.54;102112.31;10158487;29;20401;-76
2023/02/14 12:45:23;;;;;;;;;;;;;;;19.67;36.64;102103.84;10160000;29;20135;-76
2023/02/14 12:50:36;;;;;;;13.25;9.75;;;;;;;19.67;37.37;102092.94;10160822;23;19930;-77
2023/02/14 12:55:52;;;;;;;14.95;10.32;;;;;;;19.64;37.31;102081.47;10108841;29;20136;-76
2023/02/14 13:01:07;;;;;;;11.95;10.15;;;;;;;19.72;37.51;102070.72;10121302;29;20545;-76
2023/02/14 13:06:18;;;;;;;12.05;9.65;;;;;;;19.56;37.19;102064.97;10112597;29;20050;-77
2023/02/14 13:11:31;;;;;;;13.55;9.73;;;;;;;19.57;37.34;102062.09;10121674;29;20469;-77
2023/02/14 13:16:44;;;;;;;10.27;8.95;;;;;;;19.72;37.45;102062.53;10110393;29;20044;-76
2023/02/14 13:21:48;;;;;;;11.32;9.60;;;;;;;19.80;36.64;102048.16;10112019;29;20135;-76
2023/02/14 13:26:56;;;;;;;10.18;8.18;;;;;;;19.35;36.04;102038.66;10115345;29;20041;-76
2023/02/14 13:32:02;;;;;;;10.38;8.55;;;;;;;19.60;36.85;102030.97;10106376;29;20053;-77
2023/02/14 13:37:10;;;;;;;8.93;7.55;;;;;;;19.32;35.91;102029.91;10114548;29;20230;-77
2023/02/14 13:42:33;;;;;;;11.50;8.75;;;;;;;18.73;36.54;102023.44;10120848;29;20049;-77
2023/02/14 13:47:37;;;;;;;10.77;8.07;;;;;;;18.97;36.58;102020.41;10120834;29;20068;-77
2023/02/14 13:52:42;;;;;;;9.18;7.18;;;;;;;19.17;36.08;102007.66;10113743;29;20465;-76
2023/02/14 13:57:45;;;;;;;10.23;7.97;;;;;;;19.15;36.93;102004.25;10098532;29;20168;-76
2023/02/14 14:02:51;;;;;;;9.85;7.80;;;;;;;18.95;36.34;102009.66;10119681;29;20051;-76
2023/02/14 14:08:17;;;;;;;10.57;7.97;;;;;;;18.91;37.18;102005.47;10134040;29;20041;-77
2023/02/14 14:13:53;;;;;;;13.23;9.52;;;;;;;18.73;38.70;102001.66;10139830;29;20368;-76
2023/02/14 14:19:00;;;;;;;15.85;9.95;;;;;;;18.89;38.88;101993.00;10134713;29;20070;-76
2023/02/14 14:24:12;;;;;;;13.00;10.40;;;;;;;18.72;38.47;101995.38;10141166;29;20143;-76
2023/02/14 14:29:20;;;;;;;14.73;10.75;;;;;;;18.40;39.04;101986.50;10143636;29;20053;-77
2023/02/14 14:34:26;;;;;;;14.18;10.73;;;;;;;18.34;39.14;101990.63;10145849;29;20440;-77
2023/02/14 14:39:31;;;;;;;15.43;9.82;;;;;;;18.14;39.63;101995.13;10125156;29;20053;-76
2023/02/14 14:44:35;;;;;;;14.23;9.63;;;;;;;18.24;39.46;101982.47;10115419;29;20134;-75
2023/02/14 14:49:39;;;;;;;12.20;9.43;;;;;;;18.22;39.46;101975.44;10114742;29;20041;-75
2023/02/14 14:54:42;;;;;;;13.60;9.70;;;;;;;18.02;39.28;101958.13;10123718;29;20416;-75
2023/02/14 14:59:48;;;;;;;16.15;10.40;;;;;;;17.54;40.01;101959.53;10118659;29;20056;-75
2023/02/14 15:04:52;;;;;;;13.85;9.85;;;;;;;17.33;40.61;101951.34;10119583;29;20039;-75
2023/02/14 15:09:55;;;;;;;17.77;10.75;;;;;;;17.02;41.28;101955.78;10114488;29;20045;-75
2023/02/14 15:14:58;;;;;;;15.27;10.63;;;;;;;16.81;41.90;101948.44;10122847;29;20071;-76
2023/02/14 15:20:06;;;;;;;15.82;11.15;;;;;;;16.50;42.39;101949.25;10132201;29;20087;-76
2023/02/14 15:25:12;;;;;;;14.45;10.20;;;;;;;16.57;42.46;101945.06;10142287;29;20062;-77
2023/02/14 15:30:25;;;;;;;16.27;9.88;;;;;;;16.32;42.25;101943.47;10140136;29;20444;-76
2023/02/14 15:35:31;;;;;;;15.60;9.95;;;;;;;15.83;43.06;101958.22;10145908;29;20131;-76
2023/02/14 15:40:37;;;;;;;18.98;10.00;;;;;;;15.18;44.24;101963.13;10139266;29;20051;-76
2023/02/14 15:45:41;;;;;;;13.73;9.57;;;;;;;14.69;45.43;101947.84;10146247;29;20539;-76
2023/02/14 15:50:49;;;;;;;12.98;9.38;;;;;;;14.29;45.99;101950.75;10152912;29;20491;-76
2023/02/14 15:55:53;;;;;;;15.20;10.07;;;;;;;13.86;46.93;101947.53;10198726;29;20059;-75
2023/02/14 16:00:56;;;;;;;15.70;10.70;;;;;;;13.33;47.79;101954.75;10195390;29;20158;-76
2023/02/14 16:06:00;;;;;;;16.15;10.75;;;;;;;12.75;49.32;101952.31;10153130;29;20052;-76
2023/02/14 16:11:08;;;;;;;15.30;9.65;;;;;;;12.28;50.02;101955.31;10146608;29;21278;-76
2023/02/14 16:16:13;;;;;;;13.85;10.02;;;;;;;11.92;50.98;101951.28;10121689;29;20436;-76
2023/02/14 16:21:22;;;;;;;14.48;9.68;;;;;;;11.65;51.68;101957.41;10116617;29;20072;-77
2023/02/14 16:26:25;;;;;;;16.23;9.57;;;;;;;11.43;52.05;101956.97;10117153;29;20052;-77
2023/02/14 16:31:28;;;;;;;16.77;10.52;;;;;;;11.14;52.63;101956.03;10126713;29;20050;-76
2023/02/14 16:36:33;;;;;;;16.00;10.15;;;;;;;10.92;53.13;101954.53;10118795;29;20052;-76
2023/02/14 16:41:36;;;;;;;17.20;10.00;;;;;;;10.72;53.53;101961.03;10134617;29;20171;-76
2023/02/14 16:46:39;;;;;;;15.27;9.70;;;;;;;10.60;53.74;101959.91;10144644;29;20052;-76
2023/02/14 16:51:47;;;;;;;18.98;10.70;;;;;;;10.44;54.07;101955.50;10137229;29;20096;-76
2023/02/14 16:56:53;;;;;;;15.65;10.38;;;;;;;10.28;54.26;101948.25;10124533;29;20059;-75
2023/02/14 17:01:57;;;;;;;19.10;10.68;;;;;;;10.04;54.67;101950.50;10126589;29;20160;-77
2023/02/14 17:07:04;;;;;;;17.08;10.55;;;;;;;9.78;55.33;101949.16;10113598;29;20263;-75
2023/02/14 17:12:12;;;;;;;19.55;11.02;;;;;;;9.63;55.60;101941.94;10110513;29;20183;-76
2023/02/14 17:17:15;;;;;;;17.20;10.63;;;;;;;9.46;56.50;101953.50;10097355;29;20067;-76
2023/02/14 17:22:19;;;;;;;21.02;11.85;;;;;;;9.32;57.71;101956.91;10116148;29;20393;-76
2023/02/14 17:27:22;;;;;;;21.02;11.95;;;;;;;9.25;58.27;101958.19;10111196;29;20063;-75
2023/02/14 17:32:25;;;;;;;21.85;12.70;;;;;;;9.08;59.22;101951.00;10111523;29;20053;-75
2023/02/14 17:37:30;;;;;;;20.60;12.05;;;;;;;8.94;59.92;101957.03;10101843;29;20056;-75
2023/02/14 17:42:34;;;;;;;24.65;13.38;;;;;;;8.82;60.90;101953.13;10098932;29;20415;-75
2023/02/14 17:47:38;;;;;;;22.10;13.65;;;;;;;8.80;60.94;101952.34;10135111;29;20127;-76
2023/02/14 17:52:42;;;;;;;26.90;14.43;;;;;;;8.75;61.08;101948.13;10139071;29;20577;-75
2023/02/14 17:57:45;;;;;;;24.88;13.15;;;;;;;8.66;61.47;101940.53;10146467;29;20041;-75
2023/02/14 18:02:48;;;;;;;25.75;15.30;;;;;;;8.51;61.77;101935.00;10141011;29;20198;-75
2023/02/14 18:07:52;;;;;;;25.02;13.70;;;;;;;8.43;62.09;101936.28;10143990;29;20055;-75
2023/02/14 18:12:55;;;;;;;27.20;15.27;;;;;;;8.38;62.42;101928.44;10141338;29;20055;-76
2023/02/14 18:17:58;;;;;;;26.58;14.65;;;;;;;8.28;62.42;101925.34;10145607;29;20117;-76
2023/02/14 18:23:05;;;;;;;25.40;14.48;;;;;;;8.21;62.63;101926.56;10150590;29;20754;-76
2023/02/14 18:28:08;;;;;;;25.75;14.43;;;;;;;8.10;62.92;101915.50;10147217;29;20147;-76
2023/02/14 18:33:11;;;;;;;25.17;15.70;;;;;;;8.08;63.02;101922.72;10125955;29;20044;-75
2023/02/14 18:38:15;;;;;;;36.15;22.45;;;;;;;7.99;63.14;101915.13;10120901;29;20058;-76
2023/02/14 18:43:18;;;;;;;28.25;19.83;;;;;;;7.87;63.54;101917.44;10121073;29;21744;-75
2023/02/14 18:48:21;;;;;;;24.30;16.23;;;;;;;7.83;63.74;101906.91;10103271;29;20595;-75
2023/02/14 18:53:25;;;;;;;21.73;14.35;;;;;;;7.78;63.40;101895.56;10109848;29;20060;-75
2023/02/14 18:58:28;;;;;;;28.25;14.38;;;;;;;7.68;63.57;101898.66;10123914;29;20530;-75
2023/02/14 19:03:31;;;;;;;22.13;13.63;;;;;;;7.67;63.61;101894.22;10121836;29;20048;-76
2023/02/14 19:08:37;;;;;;;22.50;14.10;;;;;;;7.59;63.58;101891.03;10098686;29;20047;-75
2023/02/14 19:13:44;;;;;;;28.70;19.30;;;;;;;7.51;63.42;101893.16;10103135;29;20655;-75
2023/02/14 19:18:48;;;;;;;24.00;14.68;;;;;;;7.45;63.24;101896.97;10115780;29;20052;-75
2023/02/14 19:23:55;;;;;;;23.00;15.05;;;;;;;7.33;63.01;101888.66;10131443;29;20048;-75
2023/02/14 19:28:59;;;;;;;21.02;13.48;;;;;;;7.12;63.02;101888.63;10152102;29;20191;-74
2023/02/14 19:34:03;;;;;;;22.90;13.25;;;;;;;7.08;63.23;101876.34;10147882;29;20194;-75
2023/02/14 19:39:07;;;;;;;23.63;13.57;;;;;;;6.99;63.42;101884.72;10125574;29;20054;-75
2023/02/14 19:44:12;;;;;;;23.55;13.25;;;;;;;6.88;63.42;101882.50;10115361;29;20052;-76
2023/02/14 19:49:18;;;;;;;20.58;12.23;;;;;;;6.86;62.95;101881.69;10115562;29;20048;-76
2023/02/14 19:54:24;;;;;;;21.30;12.85;;;;;;;6.77;62.50;101877.56;10105657;29;20048;-75
2023/02/14 19:59:27;;;;;;;19.23;11.70;;;;;;;6.65;62.41;101867.41;10109586;29;20052;-75
2023/02/14 20:04:30;;;;;;;20.95;13.10;;;;;;;6.57;62.58;101881.06;10151635;29;20161;-75
2023/02/14 20:09:34;;;;;;;21.35;12.23;;;;;;;6.44;62.88;101876.28;10148654;29;20048;-75
2023/02/14 20:14:37;;;;;;;24.15;13.10;;;;;;;6.31;63.32;101871.44;10152915;29;20051;-75
2023/02/14 20:19:53;;;;;;;19.98;13.05;;;;;;;6.30;63.37;101877.69;10151443;29;20107;-76
2023/02/14 20:24:58;;;;;;;23.98;13.02;;;;;;;6.24;63.29;101869.94;10174779;29;20048;-75
2023/02/14 20:30:01;;;;;;;20.08;12.88;;;;;;;6.12;63.32;101873.97;10179339;29;20056;-75
2023/02/14 20:35:04;;;;;;;25.00;13.13;;;;;;;6.06;63.40;101870.66;10176559;29;20052;-74
2023/02/14 20:40:10;;;;;;;18.17;12.05;;;;;;;5.93;63.55;101864.94;10142311;29;20048;-75
2023/02/14 20:45:13;;;;;;;22.13;13.35;;;;;;;5.80;63.55;101859.19;10146987;29;20044;-75
2023/02/14 20:50:16;;;;;;;20.85;12.07;;;;;;;5.80;63.33;101864.50;10152524;29;20164;-75
2023/02/14 20:55:21;;;;;;;25.98;12.38;;;;;;;5.64;63.76;101852.69;10145030;29;20187;-74
2023/02/14 21:00:24;;;;;;;19.08;12.45;;;;;;;5.63;63.64;101851.81;10151832;29;20052;-75
2023/02/14 21:05:27;;;;;;;19.10;11.70;;;;;;;5.58;63.50;101851.13;10143617;29;20062;-75
2023/02/14 21:10:31;;;;;;;20.35;12.52;;;;;;;5.55;63.55;101847.69;10152392;29;20045;-75
2023/02/14 21:15:34;;;;;;;23.15;13.50;;;;;;;5.38;63.83;101846.50;10150175;29;20051;-75
2023/02/14 21:20:37;;;;;;;22.00;12.88;;;;;;;5.26;64.05;101845.13;10148318;29;20056;-75
2023/02/14 21:25:41;;;;;;;24.58;13.52;;;;;;;5.18;64.33;101839.22;10145106;29;20048;-75
2023/02/14 21:30:44;;;;;;;22.27;13.40;;;;;;;5.10;65.25;101837.75;10143690;29;20060;-75
2023/02/14 21:35:47;;;;;;;24.05;13.77;;;;;;;4.96;65.74;101825.75;10152241;29;20531;-75
2023/02/14 21:40:59;;;;;;;27.38;13.77;;;;;;;4.91;65.88;101827.72;10138279;29;20059;-75
2023/02/14 21:51:33;;;;;;;22.38;13.45;;;;;;;4.80;65.96;101827.19;11410991;23;20107;-76
2023/02/14 21:56:38;;;;;;;23.13;13.95;;;;;;;4.74;66.18;101825.59;10180051;29;20048;-75
2023/02/14 22:01:42;;;;;;;24.83;14.10;;;;;;;4.75;66.08;101822.03;10179046;29;20135;-76
2023/02/14 22:06:46;;;;;;;23.48;13.57;;;;;;;4.53;66.66;101823.69;10174064;29;20534;-77
2023/02/14 22:11:50;;;;;;;24.38;13.98;;;;;;;4.60;66.37;101836.72;10174795;29;20078;-76
2023/02/14 22:16:52;;;;;;;25.73;14.52;;;;;;;4.54;66.23;101839.59;10171740;29;20107;-74
2023/02/14 22:21:55;;;;;;;27.45;13.23;;;;;;;4.49;66.22;101835.34;10152417;29;20044;-77
2023/02/14 22:26:59;;;;;;;24.65;13.88;;;;;;;4.41;66.31;101838.22;10146134;29;20048;-75
2023/02/14 22:32:02;;;;;;;24.77;14.07;;;;;;;4.28;66.33;101845.75;10153290;29;20104;-75
2023/02/14 22:37:05;;;;;;;25.77;14.13;;;;;;;4.14;66.43;101839.97;10155615;29;20245;-77
2023/02/14 22:42:10;;;;;;;26.50;13.55;;;;;;;4.13;66.49;101840.91;10155358;29;20135;-76
2023/02/14 22:47:12;;;;;;;25.92;14.80;;;;;;;4.01;66.85;101833.31;10150146;29;20063;-76
2023/02/14 22:52:16;;;;;;;26.83;14.82;;;;;;;4.08;66.49;101833.06;10145551;29;20079;-77
2023/02/14 22:57:20;;;;;;;26.55;13.82;;;;;;;3.94;66.50;101833.47;10171981;29;20048;-77
2023/02/14 23:02:23;;;;;;;23.98;13.80;;;;;;;3.98;66.51;101831.63;10159023;29;20044;-76
2023/02/14 23:07:26;;;;;;;23.25;13.32;;;;;;;3.95;66.40;101827.25;10166169;29;20040;-77
2023/02/14 23:23:11;;;;;;;24.75;14.77;;;;;;;3.62;67.20;101829.16;10162273;29;20044;-77
2023/02/14 23:28:15;;;;;;;24.38;14.23;;;;;;;3.50;67.34;101829.47;10166413;29;20048;-77
2023/02/14 23:33:18;;;;;;;23.75;13.73;;;;;;;3.48;67.47;101818.00;10165157;29;20551;-76
2023/02/14 23:38:21;;;;;;;26.75;14.10;;;;;;;3.49;67.50;101825.09;10151306;29;20040;-77
2023/02/14 23:43:25;;;;;;;25.50;14.82;;;;;;;3.27;67.71;101819.50;10151972;29;20040;-77
2023/02/14 23:48:28;;;;;;;27.75;15.02;;;;;;;3.14;68.27;101820.75;10165710;29;20041;-76
2023/02/14 23:53:31;;;;;;;27.67;15.35;;;;;;;3.18;68.17;101812.69;10158149;29;20068;-76